Time;durP1;ratioP1;P1;durP2;ratioP2;P2;SDS_P1;SDS_P2;PMS_P1;PMS_P2;Temp;Humidity;BMP_temperature;BMP_pressure;BME280_temperature;BME280_humidity;BME280_pressure;Samples;Min_cycle;Max_cycle;Signal;HPM_P1;HPM_P2
2021/05/10 00:01:32;;;;;;;3.38;2.88;;;;;;;20.03;28.00;100022.06;5002888;28;97232;-69
2021/05/10 00:04:01;;;;;;;3.30;3.00;;;;;;;20.06;27.78;100030.09;5003261;28;98023;-69
2021/05/10 00:06:28;;;;;;;3.10;2.90;;;;;;;19.97;27.63;100031.22;5000743;28;98027;-68
2021/05/10 00:08:56;;;;;;;3.30;2.90;;;;;;;19.97;27.67;100030.38;5004085;28;98136;-68
2021/05/10 00:11:24;;;;;;;3.28;2.97;;;;;;;19.92;27.78;100025.09;5002993;28;97534;-69
2021/05/10 00:13:53;;;;;;;3.08;2.92;;;;;;;19.90;28.10;100017.94;5003256;28;97039;-69
2021/05/10 00:16:20;;;;;;;2.78;2.58;;;;;;;19.86;28.41;100021.66;5000970;28;98549;-69
2021/05/10 00:18:48;;;;;;;3.58;3.33;;;;;;;19.84;27.91;100024.41;5003960;28;101418;-69
2021/05/10 00:21:16;;;;;;;3.38;3.17;;;;;;;19.82;28.01;100028.97;5006137;28;98110;-70
2021/05/10 00:23:44;;;;;;;3.50;3.20;;;;;;;19.79;28.13;100018.22;5002976;28;97351;-70
2021/05/10 00:26:11;;;;;;;3.17;2.97;;;;;;;19.75;28.18;100012.97;5004446;28;98223;-69
2021/05/10 00:28:39;;;;;;;2.97;2.78;;;;;;;19.71;27.94;100019.41;5006365;28;96744;-70
2021/05/10 00:31:06;;;;;;;3.72;3.10;;;;;;;19.70;27.72;100020.34;5005860;28;96899;-69
2021/05/10 00:33:33;;;;;;;3.05;2.80;;;;;;;19.66;28.23;100010.53;5006448;28;97696;-70
2021/05/10 00:36:01;;;;;;;2.67;2.58;;;;;;;19.65;27.97;100019.56;5004096;28;97293;-70
2021/05/10 00:38:29;;;;;;;3.50;2.95;;;;;;;19.63;27.80;100010.63;5005647;28;97814;-70
2021/05/10 00:40:57;;;;;;;3.10;2.90;;;;;;;19.62;28.10;100015.16;5002674;28;97800;-69
2021/05/10 00:43:24;;;;;;;2.80;2.63;;;;;;;19.59;27.76;100017.91;5005651;28;96794;-70
2021/05/10 00:45:51;;;;;;;3.28;2.97;;;;;;;19.55;28.13;100016.25;5005107;28;98522;-69
2021/05/10 00:48:18;;;;;;;2.67;2.47;;;;;;;19.51;28.32;100016.38;5005156;28;97905;-69
2021/05/10 00:50:45;;;;;;;3.53;3.22;;;;;;;19.47;28.00;100007.47;5002762;28;97037;-69
2021/05/10 00:53:13;;;;;;;2.80;2.70;;;;;;;19.44;28.07;100018.34;5004845;28;97083;-69
2021/05/10 00:55:41;;;;;;;3.28;3.08;;;;;;;19.44;28.28;100018.34;5004893;28;102284;-69
2021/05/10 00:58:08;;;;;;;2.92;2.72;;;;;;;19.41;27.92;100026.50;5004773;28;102246;-70
2021/05/10 01:00:37;;;;;;;3.50;3.20;;;;;;;19.38;28.23;100037.41;5004469;28;98001;-70
2021/05/10 01:03:04;;;;;;;3.20;3.00;;;;;;;19.33;28.06;100052.84;5005834;28;97407;-70
2021/05/10 01:05:32;;;;;;;3.33;3.13;;;;;;;19.29;28.12;100075.38;5004982;28;98226;-70
2021/05/10 01:07:59;;;;;;;2.78;2.65;;;;;;;19.19;28.14;100076.53;5003497;28;99018;-71
2021/05/10 01:10:27;;;;;;;3.60;3.30;;;;;;;19.11;28.28;100070.47;5005621;28;96769;-70
2021/05/10 01:12:56;;;;;;;3.53;3.15;;;;;;;19.09;28.09;100068.72;5006063;28;97729;-69
2021/05/10 01:15:25;;;;;;;2.90;2.75;;;;;;;19.06;28.39;100072.41;5003548;28;98882;-69
2021/05/10 01:17:53;;;;;;;3.42;3.13;;;;;;;19.01;28.26;100058.09;5004898;28;97579;-69
2021/05/10 01:20:22;;;;;;;4.32;3.13;;;;;;;18.97;28.45;100054.59;5002605;28;97171;-69
2021/05/10 01:22:54;;;;;;;3.42;3.13;;;;;;;18.95;28.58;100056.44;5004689;28;97448;-70
2021/05/10 01:25:23;;;;;;;3.58;3.20;;;;;;;18.92;28.39;100055.66;5003073;28;98074;-70
2021/05/10 01:27:51;;;;;;;2.97;2.83;;;;;;;18.86;28.61;100051.28;5004099;28;99409;-71
2021/05/10 01:30:21;;;;;;;3.15;3.00;;;;;;;18.82;28.60;100048.72;5004175;28;99635;-68
2021/05/10 01:32:49;;;;;;;3.72;3.45;;;;;;;18.76;28.73;100046.16;5004738;28;97707;-68
2021/05/10 01:35:17;;;;;;;3.33;3.13;;;;;;;18.69;28.72;100031.97;5005105;28;98174;-70
2021/05/10 01:37:44;;;;;;;3.47;3.17;;;;;;;18.66;28.79;100023.03;5003776;28;98966;-68
2021/05/10 01:40:14;;;;;;;3.40;3.10;;;;;;;18.60;28.87;100028.56;5003886;28;97275;-68
2021/05/10 01:42:41;;;;;;;3.38;3.05;;;;;;;18.55;28.66;100027.78;5002927;28;97307;-69
2021/05/10 01:45:10;;;;;;;3.25;2.92;;;;;;;18.49;28.85;100028.81;5003372;28;99051;-68
2021/05/10 01:47:37;;;;;;;3.13;2.92;;;;;;;18.47;29.02;100029.75;5005215;28;97890;-68
2021/05/10 01:50:17;;;;;;;3.05;2.85;;;;;;;18.43;28.84;100028.94;5004584;28;98515;-69
2021/05/10 01:52:44;;;;;;;3.58;3.22;;;;;;;18.40;28.94;100017.34;5003010;28;97344;-70
2021/05/10 01:55:13;;;;;;;4.18;3.42;;;;;;;18.39;28.88;100019.16;5002609;28;102726;-69
2021/05/10 01:57:40;;;;;;;3.50;3.17;;;;;;;18.37;29.17;100025.53;5004326;28;98947;-69
2021/05/10 02:00:11;;;;;;;5.40;3.17;;;;;;;18.31;28.98;100013.06;5003581;28;97729;-69
2021/05/10 02:02:38;;;;;;;4.07;3.20;;;;;;;18.28;29.05;100023.00;4996098;28;97443;-69
2021/05/10 02:05:08;;;;;;;4.57;3.25;;;;;;;18.27;28.99;100018.56;5003525;28;97851;-69
2021/05/10 02:07:37;;;;;;;3.33;3.10;;;;;;;18.27;29.06;100023.94;5000196;28;97271;-69
2021/05/10 02:10:05;;;;;;;3.10;2.90;;;;;;;18.21;29.12;100019.56;5002127;28;97256;-69
2021/05/10 02:12:34;;;;;;;3.45;3.10;;;;;;;18.18;29.00;100011.56;5003572;28;97038;-69
2021/05/10 02:15:01;;;;;;;3.53;3.30;;;;;;;18.18;28.96;100010.69;5003362;28;97981;-68
2021/05/10 02:17:29;;;;;;;3.25;3.05;;;;;;;18.14;29.00;100015.25;5002339;28;97520;-69
2021/05/10 02:19:56;;;;;;;4.00;3.20;;;;;;;18.15;28.96;100014.31;5003303;28;97105;-68
2021/05/10 02:22:24;;;;;;;3.33;3.13;;;;;;;18.14;28.97;100008.97;5003603;28;98290;-68
2021/05/10 02:24:52;;;;;;;3.15;2.85;;;;;;;18.13;29.10;100017.97;5003618;28;97519;-69
2021/05/10 02:27:19;;;;;;;3.20;2.95;;;;;;;18.11;29.07;100017.13;5003660;28;97970;-69
2021/05/10 02:29:48;;;;;;;3.67;3.38;;;;;;;18.10;28.98;100024.31;5002182;28;96912;-68
2021/05/10 02:32:15;;;;;;;3.03;2.83;;;;;;;18.08;29.02;100025.25;5002549;28;97824;-68
2021/05/10 02:34:42;;;;;;;3.13;2.95;;;;;;;18.03;29.02;100019.94;5002356;28;97982;-69
2021/05/10 02:37:12;;;;;;;3.95;3.22;;;;;;;18.04;28.92;100022.63;5001564;28;98831;-69
2021/05/10 02:39:39;;;;;;;3.70;3.40;;;;;;;18.00;29.04;100012.81;5004103;28;96958;-69
2021/05/10 02:42:07;;;;;;;3.10;2.90;;;;;;;17.97;29.04;100015.56;5001135;28;96970;-69
2021/05/10 02:44:34;;;;;;;3.72;3.42;;;;;;;17.95;29.04;100012.03;5002186;28;97912;-68
2021/05/10 02:47:02;;;;;;;3.47;3.28;;;;;;;17.92;29.04;100014.78;5000132;28;97116;-67
2021/05/10 02:49:30;;;;;;;3.58;2.90;;;;;;;17.90;28.92;100010.34;5002082;28;97140;-68
2021/05/10 02:51:58;;;;;;;3.40;3.10;;;;;;;17.90;29.09;100004.97;5002015;28;97075;-69
2021/05/10 02:54:25;;;;;;;3.20;2.92;;;;;;;17.90;29.08;100013.94;5001663;28;97637;-69
2021/05/10 02:56:52;;;;;;;3.30;3.10;;;;;;;17.88;29.21;100013.06;5004242;28;98154;-69
2021/05/10 02:59:19;;;;;;;3.50;3.20;;;;;;;17.83;29.07;100008.72;5001476;28;98176;-69
2021/05/10 03:01:47;;;;;;;4.35;3.33;;;;;;;17.80;29.31;100006.94;5002382;28;98009;-69
2021/05/10 03:04:15;;;;;;;3.38;3.10;;;;;;;17.77;29.36;100009.72;4998971;28;99169;-69
2021/05/10 03:06:42;;;;;;;7.30;6.32;;;;;;;17.73;29.22;100010.69;5003489;28;99031;-70
2021/05/10 03:09:09;;;;;;;30.90;22.05;;;;;;;17.72;29.26;99997.28;5003676;28;97423;-69
2021/05/10 03:11:36;;;;;;;34.88;26.83;;;;;;;17.69;29.38;100008.13;5002951;28;96878;-69
2021/05/10 03:14:05;;;;;;;12.07;8.00;;;;;;;17.65;29.27;100020.75;5002941;28;98322;-69
2021/05/10 03:16:32;;;;;;;3.72;3.53;;;;;;;17.62;29.51;100023.47;5001926;28;98055;-69
2021/05/10 03:19:02;;;;;;;4.15;3.88;;;;;;;17.59;29.41;100020.84;5003114;28;97367;-69
2021/05/10 03:21:30;;;;;;;3.67;3.47;;;;;;;17.55;29.50;100016.44;5002187;28;97496;-69
2021/05/10 03:23:58;;;;;;;3.88;3.58;;;;;;;17.53;29.57;100020.09;5003048;28;98091;-69
2021/05/10 03:26:25;;;;;;;3.83;3.30;;;;;;;17.49;29.60;100019.25;5002138;28;97915;-68
2021/05/10 03:28:53;;;;;;;4.00;3.60;;;;;;;17.50;29.69;100012.97;5000613;28;97666;-68
2021/05/10 03:31:20;;;;;;;3.50;3.30;;;;;;;17.43;29.66;100002.34;5001614;28;96886;-69
2021/05/10 03:33:47;;;;;;;5.28;3.85;;;;;;;17.36;29.92;100017.69;5003740;28;99643;-69
2021/05/10 03:36:15;;;;;;;3.70;3.42;;;;;;;17.32;29.72;100007.91;5001157;28;99277;-69
2021/05/10 03:38:43;;;;;;;3.35;3.10;;;;;;;17.30;29.92;100007.03;5003009;28;97158;-69
2021/05/10 03:41:10;;;;;;;3.42;3.13;;;;;;;17.28;29.75;100008.88;5001856;28;97565;-69
2021/05/10 03:43:38;;;;;;;3.65;3.35;;;;;;;17.23;29.96;100008.06;5003330;28;100976;-69
2021/05/10 03:46:05;;;;;;;3.35;3.15;;;;;;;17.22;30.08;100008.97;5003100;28;97739;-69
2021/05/10 03:48:32;;;;;;;3.78;3.53;;;;;;;17.17;30.06;100001.91;5000281;28;97351;-69
2021/05/10 03:51:00;;;;;;;3.55;3.25;;;;;;;17.14;30.11;100005.56;5002933;28;97547;-69
2021/05/10 03:53:27;;;;;;;4.55;4.18;;;;;;;17.10;29.88;99993.06;5001330;28;98002;-69
2021/05/10 03:55:56;;;;;;;6.07;5.30;;;;;;;17.08;29.81;100011.03;5001079;28;99721;-69
2021/05/10 03:58:23;;;;;;;3.58;3.38;;;;;;;17.08;30.15;100019.09;5001431;28;97816;-69
2021/05/10 04:00:52;;;;;;;3.70;3.50;;;;;;;17.07;29.95;100009.28;5003586;28;96970;-69
2021/05/10 04:03:22;;;;;;;4.25;3.85;;;;;;;17.07;30.15;99998.53;5009335;28;101630;-69
2021/05/10 04:06:06;;;;;;;3.60;3.25;;;;;;;17.04;30.18;100003.94;5014773;28;97973;-69
2021/05/10 04:08:48;;;;;;;3.65;3.17;;;;;;;17.00;30.21;99996.81;5018771;28;99401;-69
2021/05/10 04:11:29;;;;;;;3.78;3.50;;;;;;;16.93;30.04;100003.22;5007680;28;98977;-70
2021/05/10 04:13:58;;;;;;;3.50;3.20;;;;;;;16.93;30.11;100024.72;5005444;28;99107;-70
2021/05/10 04:16:25;;;;;;;5.93;4.25;;;;;;;16.88;30.19;100024.81;5006943;28;97883;-71
2021/05/10 04:18:55;;;;;;;7.38;5.80;;;;;;;16.90;30.26;100016.72;5003137;28;96841;-69
2021/05/10 04:21:23;;;;;;;5.88;5.38;;;;;;;16.88;30.20;100027.50;5006967;28;97022;-69
2021/05/10 04:23:50;;;;;;;4.18;3.75;;;;;;;16.89;30.39;100025.69;5002717;28;99686;-68
2021/05/10 04:26:18;;;;;;;6.82;3.58;;;;;;;16.90;30.21;100022.09;5005269;28;98187;-69
2021/05/10 04:28:46;;;;;;;3.90;3.58;;;;;;;16.90;30.32;100022.09;5009170;28;97215;-68
2021/05/10 04:31:13;;;;;;;3.88;3.58;;;;;;;16.90;30.01;100022.09;5006598;28;97219;-69
2021/05/10 04:33:40;;;;;;;3.95;3.55;;;;;;;16.92;30.35;100022.97;5000965;28;100063;-70
2021/05/10 04:36:08;;;;;;;4.35;4.05;;;;;;;16.93;30.36;100022.03;5001539;28;98887;-69
2021/05/10 04:38:40;;;;;;;6.90;3.50;;;;;;;16.92;30.35;100021.19;5001522;28;97091;-70
2021/05/10 04:41:07;;;;;;;4.03;3.72;;;;;;;16.97;29.92;100015.69;5002067;28;96880;-70
2021/05/10 04:43:35;;;;;;;4.07;3.80;;;;;;;16.99;30.31;100017.47;5006058;28;97898;-70
2021/05/10 04:46:03;;;;;;;4.43;3.72;;;;;;;17.02;30.02;100021.88;5003587;28;102439;-70
2021/05/10 04:48:30;;;;;;;7.18;3.65;;;;;;;17.03;30.05;100013.81;5003904;28;97156;-70
2021/05/10 04:50:58;;;;;;;3.92;3.63;;;;;;;17.02;30.04;100016.50;5003899;28;97459;-70
2021/05/10 04:53:25;;;;;;;4.28;3.75;;;;;;;17.03;30.01;100023.69;5005391;28;98789;-69
2021/05/10 04:55:53;;;;;;;4.97;3.60;;;;;;;17.04;29.90;100025.44;5006099;28;101196;-71
2021/05/10 04:58:20;;;;;;;9.45;6.38;;;;;;;17.06;29.91;100026.28;5004098;28;97546;-70
2021/05/10 05:00:47;;;;;;;27.02;14.57;;;;;;;17.04;29.96;100037.09;5005771;28;97904;-71
2021/05/10 05:03:15;;;;;;;5.43;4.90;;;;;;;17.08;30.21;100030.75;5004151;28;98075;-70
2021/05/10 05:05:42;;;;;;;6.65;3.85;;;;;;;17.09;30.20;100032.50;5002767;28;98896;-71
2021/05/10 05:08:10;;;;;;;3.72;3.33;;;;;;;17.12;29.82;100025.31;5004319;28;97536;-69
2021/05/10 05:10:37;;;;;;;3.88;3.53;;;;;;;17.15;29.78;100033.31;5004232;28;97617;-71
2021/05/10 05:13:05;;;;;;;4.38;3.80;;;;;;;17.17;30.05;100036.84;4999297;28;97857;-70
2021/05/10 05:15:34;;;;;;;7.13;3.65;;;;;;;17.21;29.88;100027.81;5002715;28;97751;-71
2021/05/10 05:18:02;;;;;;;5.18;4.00;;;;;;;17.25;29.81;100029.56;5002768;28;97642;-70
2021/05/10 05:20:36;;;;;;;4.32;3.83;;;;;;;17.26;30.24;100029.53;5001933;28;97076;-70
2021/05/10 05:23:16;;;;;;;4.55;3.70;;;;;;;17.27;30.12;100025.94;5000214;28;98058;-70
2021/05/10 05:25:44;;;;;;;3.90;3.60;;;;;;;17.28;30.06;100029.50;5003744;28;98994;-70
2021/05/10 05:28:11;;;;;;;4.50;4.07;;;;;;;17.28;29.97;100025.00;5001123;28;97720;-69
2021/05/10 05:30:38;;;;;;;4.47;4.07;;;;;;;17.27;29.98;100017.88;5002267;28;97539;-70
2021/05/10 05:33:06;;;;;;;5.32;4.45;;;;;;;17.29;30.06;100023.22;5003192;28;97787;-70
2021/05/10 05:35:33;;;;;;;5.97;4.40;;;;;;;17.30;30.06;100033.94;5002174;28;98488;-70
2021/05/10 05:38:01;;;;;;;4.80;4.30;;;;;;;17.33;30.13;100049.13;5003933;28;97829;-70
2021/05/10 05:40:29;;;;;;;8.15;4.20;;;;;;;17.37;30.24;100038.28;5001900;28;96852;-69
2021/05/10 05:42:56;;;;;;;4.50;3.83;;;;;;;17.35;30.14;100039.22;5002071;28;98091;-70
2021/05/10 05:45:24;;;;;;;3.97;3.67;;;;;;;17.35;30.00;100040.09;5003454;28;98014;-70
2021/05/10 05:47:51;;;;;;;6.53;4.10;;;;;;;17.40;30.00;100043.63;5001411;28;96944;-71
2021/05/10 05:50:20;;;;;;;4.88;3.83;;;;;;;17.43;30.08;100045.38;5002232;28;97080;-71
2021/05/10 05:52:54;;;;;;;9.35;6.05;;;;;;;17.49;30.23;100048.84;5001528;28;97980;-71
2021/05/10 05:55:21;;;;;;;7.10;5.60;;;;;;;17.53;30.09;100050.56;5000354;28;97543;-70
2021/05/10 05:57:49;;;;;;;6.32;3.80;;;;;;;17.56;30.16;100058.59;5002034;28;96905;-70
2021/05/10 06:00:17;;;;;;;5.35;4.00;;;;;;;17.60;30.02;100049.53;5002286;28;98607;-70
2021/05/10 06:02:44;;;;;;;8.02;3.60;;;;;;;17.69;29.88;100054.72;4999522;28;99160;-71
2021/05/10 06:05:13;;;;;;;4.22;3.60;;;;;;;17.77;29.96;100044.72;5001203;28;98657;-71
2021/05/10 06:07:48;;;;;;;9.20;3.95;;;;;;;17.85;30.00;100040.06;5000621;28;98688;-71
2021/05/10 06:10:18;;;;;;;4.32;3.90;;;;;;;17.95;29.99;100038.06;5001555;28;97239;-71
2021/05/10 06:12:49;;;;;;;3.72;3.42;;;;;;;18.02;29.77;100045.09;4999314;28;96970;-71
2021/05/10 06:15:16;;;;;;;3.83;3.53;;;;;;;18.10;29.68;100045.84;5001509;28;98008;-72
2021/05/10 06:17:44;;;;;;;4.93;3.80;;;;;;;18.17;29.67;100043.94;5000703;28;98003;-72
2021/05/10 06:20:13;;;;;;;4.13;3.83;;;;;;;18.24;29.58;100037.47;5000715;28;96811;-72
2021/05/10 06:22:41;;;;;;;9.60;7.80;;;;;;;18.27;29.62;100030.22;5000503;28;97944;-72
2021/05/10 06:25:12;;;;;;;11.75;8.48;;;;;;;18.33;29.53;100031.88;4999827;28;98381;-72
2021/05/10 06:27:40;;;;;;;5.82;4.18;;;;;;;18.39;29.46;100039.81;5002602;28;97776;-72
2021/05/10 06:30:09;;;;;;;4.43;3.72;;;;;;;18.43;29.37;100034.34;4998158;28;97713;-72
2021/05/10 06:32:39;;;;;;;4.00;3.60;;;;;;;18.48;29.61;100031.50;5000165;28;97740;-73
2021/05/10 06:35:08;;;;;;;3.88;3.67;;;;;;;18.56;29.30;100030.44;5000583;28;100820;-72
2021/05/10 06:37:35;;;;;;;4.07;3.65;;;;;;;18.61;29.22;100035.69;4998433;28;97805;-70
2021/05/10 06:40:03;;;;;;;4.50;3.97;;;;;;;18.68;29.47;100035.56;5000520;28;98487;-72
2021/05/10 06:42:32;;;;;;;6.15;3.95;;;;;;;18.76;29.20;100036.28;5000296;28;97987;-71
2021/05/10 06:45:01;;;;;;;6.60;4.93;;;;;;;18.82;29.36;100036.09;4999955;28;98013;-71
2021/05/10 06:47:30;;;;;;;7.57;6.03;;;;;;;18.93;29.34;100038.56;4997873;28;98222;-70
2021/05/10 06:49:57;;;;;;;7.18;4.15;;;;;;;19.01;29.13;100033.84;4999359;28;97811;-71
2021/05/10 06:52:24;;;;;;;4.85;3.70;;;;;;;19.13;29.07;100033.56;5000422;28;98993;-72
2021/05/10 06:54:53;;;;;;;4.00;3.22;;;;;;;19.24;29.07;100031.47;4997472;28;97747;-72
2021/05/10 06:57:23;;;;;;;4.10;3.90;;;;;;;19.33;29.11;100044.75;4999364;28;99801;-72
2021/05/10 06:59:51;;;;;;;4.00;3.70;;;;;;;19.43;29.06;100039.97;5001804;28;98963;-71
2021/05/10 07:02:21;;;;;;;3.40;3.20;;;;;;;19.53;28.89;100028.91;5000216;28;99013;-71
2021/05/10 07:04:49;;;;;;;4.47;4.07;;;;;;;19.60;29.00;100024.22;5015761;28;97496;-70
2021/05/10 07:07:17;;;;;;;5.32;4.53;;;;;;;19.65;28.97;100024.97;5000470;28;96809;-71
2021/05/10 07:09:45;;;;;;;4.28;3.55;;;;;;;19.73;28.86;100023.84;4999597;28;97637;-72
2021/05/10 07:12:12;;;;;;;3.58;3.35;;;;;;;19.79;28.79;100028.16;4998374;28;97825;-71
2021/05/10 07:14:40;;;;;;;3.88;2.95;;;;;;;19.88;28.34;100028.78;5002139;28;98100;-71
2021/05/10 07:17:08;;;;;;;5.90;4.10;;;;;;;19.97;28.77;100023.13;5001105;28;97056;-72
2021/05/10 07:19:36;;;;;;;3.58;3.28;;;;;;;20.10;28.24;100028.19;4998601;28;97274;-72
2021/05/10 07:22:04;;;;;;;3.70;3.40;;;;;;;20.16;28.18;100030.69;5001571;28;99061;-72
2021/05/10 07:24:31;;;;;;;13.18;8.63;;;;;;;20.26;28.11;100024.09;5004338;28;97704;-71
2021/05/10 07:26:58;;;;;;;4.95;4.45;;;;;;;20.31;28.35;100014.03;5003692;28;97804;-71
2021/05/10 07:29:25;;;;;;;3.55;3.03;;;;;;;20.40;28.40;100016.44;4999944;28;97280;-71
2021/05/10 07:31:53;;;;;;;7.57;5.82;;;;;;;20.48;28.25;100014.38;5001940;28;99287;-71
2021/05/10 07:34:22;;;;;;;5.13;4.72;;;;;;;20.57;27.99;100016.84;5002511;28;98035;-71
2021/05/10 07:36:50;;;;;;;4.28;3.33;;;;;;;20.65;28.10;100022.84;5003836;28;97050;-71
2021/05/10 07:39:18;;;;;;;5.28;3.70;;;;;;;20.69;28.26;100032.66;5005004;28;97205;-72
2021/05/10 07:41:45;;;;;;;6.57;5.70;;;;;;;20.74;28.26;100025.28;5005808;28;97987;-70
2021/05/10 07:44:13;;;;;;;5.20;4.70;;;;;;;20.84;28.09;100010.53;5007288;28;97937;-71
2021/05/10 07:46:40;;;;;;;34.83;21.48;;;;;;;20.89;28.19;100006.72;5004808;28;97237;-71
2021/05/10 07:49:08;;;;;;;8.90;6.90;;;;;;;20.96;28.15;100000.16;5004345;28;96905;-71
2021/05/10 07:51:36;;;;;;;6.53;5.88;;;;;;;21.03;27.89;99999.97;5004733;28;101924;-70
2021/05/10 07:54:04;;;;;;;4.40;3.83;;;;;;;21.07;28.03;100002.50;5003863;28;97284;-69
2021/05/10 07:56:31;;;;;;;3.50;3.25;;;;;;;21.16;27.86;100004.06;5003449;28;97915;-71
2021/05/10 07:59:00;;;;;;;3.13;2.92;;;;;;;21.26;27.50;100009.09;4986466;28;97248;-70
2021/05/10 08:01:29;;;;;;;3.83;3.08;;;;;;;21.38;27.52;100005.09;5004059;28;100732;-70
2021/05/10 08:03:56;;;;;;;2.53;2.42;;;;;;;21.49;27.32;100002.88;5002604;28;99317;-70
2021/05/10 08:06:23;;;;;;;3.13;2.55;;;;;;;21.50;27.29;99991.09;5001703;28;97583;-70
2021/05/10 08:08:53;;;;;;;5.82;5.25;;;;;;;21.54;27.21;99995.47;5002650;28;97638;-71
2021/05/10 08:11:20;;;;;;;20.80;13.05;;;;;;;21.62;27.43;99990.63;5003408;28;97824;-71
2021/05/10 08:13:48;;;;;;;9.05;5.65;;;;;;;21.65;27.41;99977.88;5003103;28;97868;-70
2021/05/10 08:16:15;;;;;;;2.92;2.72;;;;;;;21.73;27.38;99977.63;5000323;28;97056;-70
2021/05/10 08:18:43;;;;;;;3.22;3.00;;;;;;;21.78;27.48;99970.22;5001953;28;97933;-71
2021/05/10 08:21:11;;;;;;;3.60;3.30;;;;;;;21.84;27.36;99969.97;5001085;28;98523;-70
2021/05/10 08:23:38;;;;;;;10.00;6.57;;;;;;;21.89;27.27;99976.09;4999375;28;100348;-71
2021/05/10 08:26:06;;;;;;;6.60;4.38;;;;;;;21.94;27.48;99980.41;5003850;28;97393;-69
2021/05/10 08:28:34;;;;;;;9.98;8.27;;;;;;;21.97;27.27;99982.13;5004455;28;97708;-70
2021/05/10 08:31:01;;;;;;;3.40;3.20;;;;;;;22.01;27.11;99983.78;5004360;28;98003;-70
2021/05/10 08:33:30;;;;;;;4.32;3.03;;;;;;;22.09;27.47;99989.75;5000715;28;98092;-70
2021/05/10 08:35:57;;;;;;;4.30;2.80;;;;;;;22.18;27.29;99977.69;5006963;28;96803;-70
2021/05/10 08:38:25;;;;;;;3.70;2.85;;;;;;;22.27;27.21;99988.22;5005340;28;97203;-71
2021/05/10 08:40:53;;;;;;;2.10;2.00;;;;;;;22.33;27.21;99985.28;5001892;28;97556;-71
2021/05/10 08:43:22;;;;;;;5.15;2.65;;;;;;;22.35;27.35;99996.91;5003050;28;97673;-70
2021/05/10 08:45:54;;;;;;;2.95;2.75;;;;;;;22.41;27.13;100012.94;5002243;28;96968;-71
2021/05/10 08:48:22;;;;;;;8.02;6.63;;;;;;;22.45;27.06;100018.19;5001250;28;96742;-71
2021/05/10 08:50:50;;;;;;;3.78;3.47;;;;;;;22.56;26.95;100017.75;4993214;28;97959;-71
2021/05/10 08:53:31;;;;;;;3.42;3.13;;;;;;;22.67;27.56;100023.63;5004090;28;97871;-70
2021/05/10 08:55:58;;;;;;;6.32;3.30;;;;;;;22.75;26.93;100022.38;5003264;28;97226;-70
2021/05/10 08:58:27;;;;;;;3.17;2.97;;;;;;;22.86;27.02;100021.94;5001840;28;97435;-71
2021/05/10 09:00:58;;;;;;;6.78;3.10;;;;;;;22.98;26.74;100023.28;4999129;28;99165;-70
2021/05/10 09:03:32;;;;;;;3.08;2.83;;;;;;;23.07;26.80;100023.78;4999755;28;97071;-70
2021/05/10 09:06:01;;;;;;;3.42;3.22;;;;;;;23.10;26.59;100029.06;5001186;28;97347;-71
2021/05/10 09:08:37;;;;;;;2.45;2.25;;;;;;;23.22;26.68;100028.53;4997360;28;97505;-70
2021/05/10 09:11:05;;;;;;;6.70;3.15;;;;;;;23.26;26.44;100034.75;5001243;28;97881;-70
2021/05/10 09:13:43;;;;;;;43.95;27.20;;;;;;;23.32;26.82;100051.66;4999779;28;98037;-70
2021/05/10 09:16:12;;;;;;;12.00;9.50;;;;;;;23.31;26.57;100055.31;5000544;28;97224;-71
2021/05/10 09:18:40;;;;;;;4.78;3.60;;;;;;;23.35;26.65;100061.50;4998080;28;97177;-70
2021/05/10 09:21:12;;;;;;;4.82;3.38;;;;;;;23.39;26.58;100063.16;5001790;28;97850;-69
2021/05/10 09:24:00;;;;;;;4.13;3.17;;;;;;;23.42;26.68;100080.19;4986054;28;97751;-70
2021/05/10 09:26:32;;;;;;;3.83;3.50;;;;;;;23.44;26.54;100094.59;4987995;28;98301;-71
2021/05/10 09:29:04;;;;;;;4.07;3.20;;;;;;;23.50;26.75;100083.47;4997216;28;97341;-71
2021/05/10 09:31:33;;;;;;;4.57;2.95;;;;;;;23.52;26.51;100067.09;4999530;28;99637;-70
2021/05/10 09:34:02;;;;;;;3.22;3.00;;;;;;;23.56;26.29;100053.34;4998273;28;97326;-71
2021/05/10 09:36:33;;;;;;;3.97;2.80;;;;;;;23.58;26.51;100054.16;4998851;28;97260;-71
2021/05/10 09:39:06;;;;;;;4.63;2.97;;;;;;;23.62;26.47;100049.47;4999482;28;98300;-71
2021/05/10 09:41:57;;;;;;;3.13;2.88;;;;;;;23.73;26.66;100049.88;5001006;28;97890;-71
2021/05/10 09:44:40;;;;;;;3.53;3.22;;;;;;;23.81;26.78;100045.84;4999360;28;97412;-69
2021/05/10 09:47:07;;;;;;;3.20;2.90;;;;;;;23.90;26.11;100041.84;5005775;28;97247;-68
2021/05/10 09:49:44;;;;;;;6.28;3.88;;;;;;;24.02;26.76;100040.44;4999778;28;97069;-68
2021/05/10 09:52:19;;;;;;;2.95;2.75;;;;;;;24.10;26.38;100027.38;5000245;28;99811;-68
2021/05/10 09:54:53;;;;;;;2.83;2.63;;;;;;;24.18;26.05;100039.66;4998818;28;98029;-68
2021/05/10 09:57:20;;;;;;;4.65;2.85;;;;;;;24.24;26.33;100044.81;5000273;28;97119;-70
2021/05/10 10:00:15;;;;;;;2.53;2.40;;;;;;;24.36;25.89;100049.66;5001230;28;98457;-71
2021/05/10 10:02:42;;;;;;;2.90;2.70;;;;;;;24.40;26.19;100054.00;4996760;28;98147;-70
2021/05/10 10:05:12;;;;;;;4.22;2.83;;;;;;;24.45;26.21;100048.38;4999745;28;97789;-70
2021/05/10 10:07:40;;;;;;;2.90;2.70;;;;;;;24.54;26.03;100042.47;5000588;28;99063;-71
2021/05/10 10:10:08;;;;;;;2.90;2.80;;;;;;;24.63;25.84;100047.47;4999620;28;96947;-71
2021/05/10 10:12:36;;;;;;;2.88;2.67;;;;;;;24.73;25.94;100038.81;4998791;28;97885;-70
2021/05/10 10:15:04;;;;;;;4.18;3.65;;;;;;;24.78;25.49;100044.03;5006814;28;97914;-72
2021/05/10 10:17:32;;;;;;;3.20;3.00;;;;;;;24.89;25.88;100035.31;5004785;28;97164;-72
2021/05/10 10:20:04;;;;;;;6.03;5.45;;;;;;;24.95;25.40;100035.94;4999525;28;96784;-71
2021/05/10 10:22:55;;;;;;;4.40;4.00;;;;;;;25.00;25.43;100039.31;5002993;28;98911;-71
2021/05/10 10:25:23;;;;;;;3.10;2.90;;;;;;;25.07;25.66;100015.38;5000828;28;99151;-71
2021/05/10 10:28:14;;;;;;;6.05;4.88;;;;;;;25.11;25.20;100020.59;4994640;28;96935;-71
2021/05/10 10:30:45;;;;;;;3.92;3.20;;;;;;;25.16;25.09;100007.63;4997779;28;97660;-71
2021/05/10 10:33:20;;;;;;;4.25;2.50;;;;;;;25.22;25.61;99995.53;4987630;28;100892;-71
2021/05/10 10:35:48;;;;;;;2.78;2.60;;;;;;;25.26;25.08;100005.31;5001297;28;97155;-70
2021/05/10 10:38:25;;;;;;;3.30;3.05;;;;;;;25.33;25.68;99990.41;4999684;28;96822;-70
2021/05/10 10:41:18;;;;;;;3.13;2.88;;;;;;;25.44;24.93;100007.06;5000519;28;97603;-70
2021/05/10 10:43:46;;;;;;;3.05;2.70;;;;;;;25.53;24.87;100004.78;5001271;28;97474;-71
2021/05/10 10:46:23;;;;;;;4.13;2.70;;;;;;;25.69;24.82;100016.63;5002273;28;100070;-71
2021/05/10 10:48:53;;;;;;;2.40;2.30;;;;;;;25.78;24.71;100015.25;4999491;28;96688;-71
2021/05/10 10:51:21;;;;;;;2.50;2.40;;;;;;;25.87;24.56;100027.53;4999255;28;97212;-70
2021/05/10 10:53:50;;;;;;;4.55;2.78;;;;;;;25.93;24.59;100033.50;4992914;28;98230;-71
2021/05/10 10:56:17;;;;;;;3.88;2.10;;;;;;;25.97;24.63;100015.16;5000204;28;97693;-71
2021/05/10 10:58:49;;;;;;;3.13;2.92;;;;;;;26.01;24.81;99993.13;5002446;28;97537;-70
2021/05/10 11:01:21;;;;;;;2.78;2.58;;;;;;;26.06;24.70;99998.31;5003089;28;97222;-70
2021/05/10 11:03:52;;;;;;;2.90;2.30;;;;;;;26.11;24.15;99993.47;5001886;28;97586;-71
2021/05/10 11:06:21;;;;;;;1.98;1.88;;;;;;;26.16;24.25;100007.75;5000481;28;97984;-70
2021/05/10 11:08:53;;;;;;;2.35;2.15;;;;;;;26.21;24.06;100005.63;5001806;28;97658;-70
2021/05/10 11:11:52;;;;;;;11.18;3.30;;;;;;;26.29;22.97;99998.78;4991241;28;97002;-71
2021/05/10 11:14:41;;;;;;;69.30;40.05;;;;;;;26.37;23.16;99998.34;4996497;28;99055;-71
2021/05/10 11:17:09;;;;;;;7.82;5.47;;;;;;;26.40;23.66;99996.31;4997568;28;99000;-72
2021/05/10 11:19:39;;;;;;;3.20;2.58;;;;;;;26.48;23.93;100007.75;4998397;28;96756;-71
2021/05/10 11:22:32;;;;;;;2.33;2.22;;;;;;;26.57;22.74;100000.88;4995161;28;97958;-70
2021/05/10 11:25:37;;;;;;;2.72;2.00;;;;;;;26.63;21.46;99995.94;4998341;28;99152;-70
2021/05/10 11:28:37;;;;;;;2.00;2.00;;;;;;;26.70;22.16;99996.47;4997439;28;98937;-70
2021/05/10 11:31:06;;;;;;;2.60;2.40;;;;;;;26.77;23.09;100008.78;4998294;28;96942;-71
2021/05/10 11:34:01;;;;;;;8.27;7.47;;;;;;;26.91;21.83;100017.03;4999618;28;98566;-70
2021/05/10 11:36:30;;;;;;;3.17;2.97;;;;;;;26.93;22.65;100025.16;4997496;28;102308;-71